Time;durP1;ratioP1;P1;durP2;ratioP2;P2;SDS_P1;SDS_P2;PMS_P1;PMS_P2;Temp;Humidity;BMP_temperature;BMP_pressure;BME280_temperature;BME280_humidity;BME280_pressure;Samples;Min_cycle;Max_cycle;Signal;HPM_P1;HPM_P2
2023/09/04 00:00:00;;;;;;;0.20;0.20;;;;;;;-144.31;100.00;58022.63;4842147;29;20042;-59
2023/09/04 00:02:26;;;;;;;0.30;0.30;;;;;;;-144.31;100.00;58022.63;4844799;29;20048;-58
2023/09/04 00:04:52;;;;;;;0.30;0.30;;;;;;;-144.31;100.00;58022.63;4852290;29;20033;-59
2023/09/04 00:07:17;;;;;;;0.30;0.30;;;;;;;-144.31;100.00;58022.63;4845397;29;20143;-59
2023/09/04 00:09:43;;;;;;;0.30;0.30;;;;;;;-144.31;100.00;58022.63;4840870;29;20052;-59
2023/09/04 00:12:08;;;;;;;0.25;0.25;;;;;;;-144.31;100.00;58022.63;4850297;29;20053;-58
2023/09/04 00:14:34;;;;;;;0.30;0.30;;;;;;;-144.31;100.00;58022.63;4847304;29;20872;-58
2023/09/04 00:16:59;;;;;;;0.30;0.30;;;;;;;-144.31;100.00;58022.63;4845866;29;20124;-59
2023/09/04 00:19:25;;;;;;;0.30;0.30;;;;;;;-144.31;100.00;58022.63;4857416;29;20740;-59
2023/09/04 00:21:50;;;;;;;0.30;0.30;;;;;;;-144.31;100.00;58022.63;4845234;29;20068;-59
2023/09/04 00:24:17;;;;;;;0.30;0.30;;;;;;;-144.31;100.00;58022.63;4851071;29;20034;-59
2023/09/04 00:26:42;;;;;;;0.30;0.30;;;;;;;-144.31;100.00;58022.63;4844691;29;20471;-58
2023/09/04 00:29:08;;;;;;;0.30;0.30;;;;;;;-144.31;100.00;58022.63;4852115;29;20492;-58
2023/09/04 00:31:33;;;;;;;0.30;0.30;;;;;;;-144.31;100.00;58022.63;4850114;29;20460;-58
2023/09/04 00:33:59;;;;;;;0.30;0.30;;;;;;;-144.31;100.00;58022.63;4856149;29;20557;-58
2023/09/04 00:36:24;;;;;;;0.30;0.30;;;;;;;-144.31;100.00;58022.63;4864096;29;20060;-58
2023/09/04 00:38:49;;;;;;;0.30;0.30;;;;;;;-144.31;100.00;58022.63;4852074;29;20037;-58
2023/09/04 00:41:18;;;;;;;0.38;0.38;;;;;;;-144.31;100.00;58022.63;4851696;29;20053;-57
2023/09/04 00:43:44;;;;;;;0.30;0.30;;;;;;;-144.31;100.00;58022.63;4851989;29;20102;-57
2023/09/04 00:46:10;;;;;;;0.30;0.30;;;;;;;-144.31;100.00;58022.63;4849172;29;20046;-58
2023/09/04 00:48:36;;;;;;;0.32;0.32;;;;;;;-144.31;100.00;58022.63;4847471;29;20053;-59
2023/09/04 00:51:01;;;;;;;0.30;0.30;;;;;;;-144.31;100.00;58022.63;4861915;29;20041;-58
2023/09/04 00:53:29;;;;;;;0.30;0.30;;;;;;;-144.31;100.00;58022.63;4846733;29;20052;-60
2023/09/04 00:55:55;;;;;;;0.30;0.30;;;;;;;-144.31;100.00;58022.63;4849078;29;20759;-57
2023/09/04 00:58:21;;;;;;;0.30;0.30;;;;;;;-144.31;100.00;58022.63;4847579;29;20045;-58
2023/09/04 01:00:46;;;;;;;0.30;0.30;;;;;;;-144.31;100.00;58022.63;4849289;29;20048;-59
2023/09/04 01:03:12;;;;;;;0.30;0.30;;;;;;;-144.31;100.00;58022.63;4862954;29;20041;-60
2023/09/04 01:05:38;;;;;;;0.30;0.30;;;;;;;-144.31;100.00;58022.63;4844293;29;20742;-59
2023/09/04 01:08:04;;;;;;;0.30;0.30;;;;;;;-144.31;100.00;58022.63;4850746;29;20045;-59
2023/09/04 01:10:42;;;;;;;0.30;0.30;;;;;;;-144.31;100.00;58022.63;4848122;29;20049;-58
2023/09/04 01:13:16;;;;;;;0.30;0.30;;;;;;;-144.31;100.00;58022.63;4845268;29;20053;-60
2023/09/04 01:15:43;;;;;;;0.30;0.30;;;;;;;-144.31;100.00;58022.63;4845318;29;20041;-58
2023/09/04 01:18:09;;;;;;;0.30;0.30;;;;;;;-144.31;100.00;58022.63;4848213;29;20048;-59
2023/09/04 01:20:35;;;;;;;0.30;0.30;;;;;;;-144.31;100.00;58022.63;4848195;29;20510;-58
2023/09/04 01:23:02;;;;;;;0.30;0.30;;;;;;;-144.31;100.00;58022.63;4846249;29;20277;-60
2023/09/04 01:25:37;;;;;;;0.30;0.30;;;;;;;-144.31;100.00;58022.63;4848172;29;20037;-59
2023/09/04 01:28:20;;;;;;;0.30;0.30;;;;;;;-144.31;100.00;58022.63;4859980;29;20049;-59
2023/09/04 01:31:18;;;;;;;0.30;0.30;;;;;;;-144.31;100.00;58022.63;4863307;29;20041;-60
2023/09/04 01:33:57;;;;;;;0.30;0.30;;;;;;;-144.31;100.00;58022.63;4862860;29;20046;-60
2023/09/04 01:36:27;;;;;;;0.30;0.30;;;;;;;-144.31;100.00;58022.63;4844181;29;20038;-60
2023/09/04 01:38:53;;;;;;;0.20;0.20;;;;;;;-144.31;100.00;58022.63;4852391;29;20602;-58
2023/09/04 01:41:19;;;;;;;0.30;0.30;;;;;;;-144.31;100.00;58022.63;4848219;29;20050;-57
2023/09/04 01:43:44;;;;;;;0.30;0.30;;;;;;;-144.31;100.00;58022.63;4844168;29;20284;-57
2023/09/04 01:46:11;;;;;;;0.30;0.30;;;;;;;-144.31;100.00;58022.63;4846720;29;20041;-57
2023/09/04 01:48:36;;;;;;;0.30;0.30;;;;;;;-144.31;100.00;58022.63;4847834;29;20071;-60
2023/09/04 01:51:01;;;;;;;0.32;0.32;;;;;;;-144.31;100.00;58022.63;4844144;29;20432;-58
2023/09/04 01:53:27;;;;;;;0.30;0.30;;;;;;;-144.31;100.00;58022.63;4850206;29;20072;-58
2023/09/04 01:55:53;;;;;;;0.30;0.30;;;;;;;-144.31;100.00;58022.63;4847377;29;20086;-58
2023/09/04 01:58:18;;;;;;;0.30;0.30;;;;;;;-144.31;100.00;58022.63;4856473;29;20037;-59
2023/09/04 02:00:46;;;;;;;0.30;0.30;;;;;;;-144.31;100.00;58022.63;4843906;29;20480;-57
2023/09/04 02:03:11;;;;;;;0.30;0.30;;;;;;;-144.31;100.00;58022.63;4843529;29;20073;-58
2023/09/04 02:05:38;;;;;;;0.30;0.30;;;;;;;-144.31;100.00;58022.63;4848505;29;20706;-58
2023/09/04 02:08:07;;;;;;;0.30;0.30;;;;;;;-144.31;100.00;58022.63;4843479;29;20053;-59
2023/09/04 02:10:36;;;;;;;0.30;0.30;;;;;;;-144.31;100.00;58022.63;4849276;29;20060;-58
2023/09/04 02:13:02;;;;;;;0.30;0.30;;;;;;;-144.31;100.00;58022.63;4850627;29;20112;-59
2023/09/04 02:15:29;;;;;;;0.30;0.30;;;;;;;-144.31;100.00;58022.63;4847654;29;20046;-57
2023/09/04 02:17:55;;;;;;;0.40;0.40;;;;;;;-144.31;100.00;58022.63;4845161;29;20053;-59
2023/09/04 02:20:21;;;;;;;0.30;0.30;;;;;;;-144.31;100.00;58022.63;4850101;29;20030;-59
2023/09/04 02:22:47;;;;;;;0.30;0.30;;;;;;;-144.31;100.00;58022.63;4844272;29;20469;-58
2023/09/04 02:25:13;;;;;;;0.30;0.30;;;;;;;-144.31;100.00;58022.63;4848803;29;20112;-57
2023/09/04 02:27:38;;;;;;;0.30;0.30;;;;;;;-144.31;100.00;58022.63;4845942;29;20133;-57
2023/09/04 02:30:07;;;;;;;0.30;0.30;;;;;;;-144.31;100.00;58022.63;4847584;29;20492;-58
2023/09/04 02:32:34;;;;;;;0.30;0.30;;;;;;;-144.31;100.00;58022.63;4844006;29;20042;-57
2023/09/04 02:34:59;;;;;;;0.30;0.30;;;;;;;-144.31;100.00;58022.63;4845479;29;20034;-59
2023/09/04 02:37:27;;;;;;;0.30;0.30;;;;;;;-144.31;100.00;58022.63;4845147;29;20045;-60
2023/09/04 02:39:52;;;;;;;0.32;0.32;;;;;;;-144.31;100.00;58022.63;4845661;29;20049;-59
2023/09/04 02:42:20;;;;;;;0.40;0.40;;;;;;;-144.31;100.00;58022.63;4846456;29;20536;-59
2023/09/04 02:44:46;;;;;;;0.30;0.30;;;;;;;-144.31;100.00;58022.63;4851420;29;20045;-60
2023/09/04 02:47:12;;;;;;;0.30;0.30;;;;;;;-144.31;100.00;58022.63;4846345;29;20048;-59
2023/09/04 02:49:37;;;;;;;0.30;0.30;;;;;;;-144.31;100.00;58022.63;4843632;29;20045;-60
2023/09/04 02:52:03;;;;;;;0.30;0.30;;;;;;;-144.31;100.00;58022.63;4849767;29;20493;-59
2023/09/04 02:54:29;;;;;;;0.30;0.30;;;;;;;-144.31;100.00;58022.63;4844419;29;20045;-59
2023/09/04 02:56:54;;;;;;;0.35;0.35;;;;;;;-144.31;100.00;58022.63;4843777;29;20057;-59
2023/09/04 02:59:19;;;;;;;0.35;0.35;;;;;;;-144.31;100.00;58022.63;4860383;29;20883;-59
2023/09/04 03:01:49;;;;;;;0.30;0.30;;;;;;;-144.31;100.00;58022.63;4841175;29;20042;-59
2023/09/04 03:04:16;;;;;;;0.30;0.30;;;;;;;-144.31;100.00;58022.63;4841347;29;20399;-59
2023/09/04 03:06:41;;;;;;;0.30;0.30;;;;;;;-144.31;100.00;58022.63;4841385;29;20038;-59
2023/09/04 03:09:10;;;;;;;0.30;0.30;;;;;;;-144.31;100.00;58022.63;4844230;29;20048;-59
2023/09/04 03:11:35;;;;;;;0.30;0.30;;;;;;;-144.31;100.00;58022.63;4840847;29;20056;-59
2023/09/04 03:14:01;;;;;;;0.30;0.30;;;;;;;-144.31;100.00;58022.63;4855990;29;20045;-59
2023/09/04 03:16:28;;;;;;;0.30;0.30;;;;;;;-144.31;100.00;58022.63;4860471;29;20133;-60
2023/09/04 03:18:54;;;;;;;;;;;;;;;-144.31;100.00;58022.63;4849553;29;20038;-58
2023/09/04 03:21:19;;;;;;;0.37;0.37;;;;;;;-144.31;100.00;58022.63;4845925;29;19924;-59
2023/09/04 03:23:47;;;;;;;0.30;0.30;;;;;;;-144.31;100.00;58022.63;4843368;29;20392;-61
2023/09/04 03:26:13;;;;;;;0.30;0.30;;;;;;;-144.31;100.00;58022.63;4858982;29;20034;-57
2023/09/04 03:28:39;;;;;;;0.30;0.30;;;;;;;-144.31;100.00;58022.63;4862075;29;20172;-59
2023/09/04 03:31:04;;;;;;;0.40;0.40;;;;;;;-144.31;100.00;58022.63;4841407;29;20044;-59
2023/09/04 03:33:31;;;;;;;0.30;0.30;;;;;;;-144.31;100.00;58022.63;4853141;29;20741;-58
2023/09/04 03:35:57;;;;;;;0.30;0.30;;;;;;;-144.31;100.00;58022.63;4850676;29;20082;-57
2023/09/04 03:38:23;;;;;;;0.40;0.40;;;;;;;-144.31;100.00;58022.63;4856482;29;20042;-57
2023/09/04 03:40:49;;;;;;;0.30;0.30;;;;;;;-144.31;100.00;58022.63;4855673;29;20052;-58
2023/09/04 03:43:14;;;;;;;0.30;0.30;;;;;;;-144.31;100.00;58022.63;4843392;29;20038;-58
2023/09/04 03:45:40;;;;;;;0.30;0.30;;;;;;;-144.31;100.00;58022.63;4848199;29;20105;-61
2023/09/04 03:48:05;;;;;;;0.30;0.30;;;;;;;-144.31;100.00;58022.63;4848809;29;20523;-58
2023/09/04 03:50:35;;;;;;;0.30;0.30;;;;;;;-144.31;100.00;58022.63;4845596;29;20045;-57
2023/09/04 03:53:01;;;;;;;0.30;0.30;;;;;;;-144.31;100.00;58022.63;4847235;29;20528;-57
2023/09/04 03:55:27;;;;;;;0.30;0.30;;;;;;;-144.31;100.00;58022.63;4846099;29;20093;-59
2023/09/04 03:57:52;;;;;;;0.30;0.30;;;;;;;-144.31;100.00;58022.63;4858522;29;20072;-60
2023/09/04 04:00:20;;;;;;;0.30;0.30;;;;;;;-144.31;100.00;58022.63;4854023;29;20068;-59
2023/09/04 04:02:49;;;;;;;0.30;0.30;;;;;;;-144.31;100.00;58022.63;4845420;29;20080;-58
2023/09/04 04:05:15;;;;;;;0.30;0.30;;;;;;;-144.31;100.00;58022.63;4863517;29;20064;-57
2023/09/04 04:07:42;;;;;;;0.30;0.30;;;;;;;-144.31;100.00;58022.63;4852684;29;20053;-60
2023/09/04 04:10:08;;;;;;;0.40;0.40;;;;;;;-144.31;100.00;58022.63;4847679;29;20034;-59
2023/09/04 04:12:34;;;;;;;0.30;0.30;;;;;;;-144.31;100.00;58022.63;4860681;29;20353;-58
2023/09/04 04:15:04;;;;;;;0.30;0.30;;;;;;;-144.31;100.00;58022.63;4850489;29;20038;-60
2023/09/04 04:17:30;;;;;;;0.30;0.30;;;;;;;-144.31;100.00;58022.63;4846227;29;20046;-58
2023/09/04 04:19:56;;;;;;;0.30;0.30;;;;;;;-144.31;100.00;58022.63;4846345;29;20400;-57
2023/09/04 04:22:23;;;;;;;0.40;0.40;;;;;;;-144.31;100.00;58022.63;4848113;29;20564;-57
2023/09/04 04:24:49;;;;;;;0.40;0.40;;;;;;;-144.31;100.00;58022.63;4848000;29;20504;-59
2023/09/04 04:27:17;;;;;;;0.30;0.30;;;;;;;-144.31;100.00;58022.63;4849918;29;20029;-58
2023/09/04 04:29:43;;;;;;;0.30;0.30;;;;;;;-144.31;100.00;58022.63;4845148;29;20046;-58
2023/09/04 04:32:09;;;;;;;0.35;0.35;;;;;;;-144.31;100.00;58022.63;4860901;29;20041;-57
2023/09/04 04:34:34;;;;;;;0.40;0.40;;;;;;;-144.31;100.00;58022.63;4863343;29;20049;-59
2023/09/04 04:37:00;;;;;;;0.40;0.40;;;;;;;-144.31;100.00;58022.63;4859549;29;20564;-58
2023/09/04 04:39:27;;;;;;;0.40;0.40;;;;;;;-144.31;100.00;58022.63;4848285;29;20068;-57
2023/09/04 04:41:55;;;;;;;0.38;0.38;;;;;;;-144.31;100.00;58022.63;4845119;29;20520;-61
2023/09/04 04:44:21;;;;;;;0.40;0.40;;;;;;;-144.31;100.00;58022.63;4845636;29;20042;-57
2023/09/04 04:46:47;;;;;;;0.40;0.40;;;;;;;-144.31;100.00;58022.63;4848601;29;20125;-58
2023/09/04 04:49:15;;;;;;;0.38;0.38;;;;;;;-144.31;100.00;58022.63;4844610;29;20050;-58
2023/09/04 04:51:41;;;;;;;0.30;0.30;;;;;;;-144.31;100.00;58022.63;4861268;29;20137;-58
2023/09/04 04:54:06;;;;;;;0.30;0.30;;;;;;;-144.31;100.00;58022.63;4845117;29;20045;-58
2023/09/04 04:56:32;;;;;;;0.30;0.30;;;;;;;-144.31;100.00;58022.63;4847124;29;20045;-58
2023/09/04 04:58:57;;;;;;;0.40;0.40;;;;;;;-144.31;100.00;58022.63;4852668;29;20061;-58
2023/09/04 05:01:23;;;;;;;0.40;0.40;;;;;;;-144.31;100.00;58022.63;4850374;29;20052;-60
2023/09/04 05:03:48;;;;;;;0.30;0.30;;;;;;;-144.31;100.00;58022.63;4844665;29;20054;-58
2023/09/04 05:06:14;;;;;;;0.38;0.38;;;;;;;-144.31;100.00;58022.63;4862335;29;20042;-58
2023/09/04 05:08:39;;;;;;;0.30;0.30;;;;;;;-144.31;100.00;58022.63;4864626;29;20057;-61
2023/09/04 05:11:05;;;;;;;0.40;0.40;;;;;;;-144.31;100.00;58022.63;4844505;29;20041;-61
2023/09/04 05:13:34;;;;;;;0.40;0.40;;;;;;;-144.31;100.00;58022.63;4844644;29;20041;-58
2023/09/04 05:16:03;;;;;;;0.40;0.40;;;;;;;-144.31;100.00;58022.63;4860926;29;20556;-58
2023/09/04 05:18:31;;;;;;;0.30;0.30;;;;;;;-144.31;100.00;58022.63;4851898;29;20144;-58
2023/09/04 05:20:57;;;;;;;0.30;0.30;;;;;;;-144.31;100.00;58022.63;4844349;29;20052;-60
2023/09/04 05:23:23;;;;;;;0.30;0.30;;;;;;;-144.31;100.00;58022.63;4846185;29;20109;-58
2023/09/04 05:25:52;;;;;;;0.30;0.30;;;;;;;-144.31;100.00;58022.63;4846038;29;20081;-57
2023/09/04 05:28:18;;;;;;;0.30;0.30;;;;;;;-144.31;100.00;58022.63;4846786;29;20156;-58
2023/09/04 05:30:43;;;;;;;0.35;0.35;;;;;;;-144.31;100.00;58022.63;4846103;29;20142;-59
2023/09/04 05:33:09;;;;;;;0.35;0.35;;;;;;;-144.31;100.00;58022.63;4850808;29;20144;-58
2023/09/04 05:35:34;;;;;;;0.40;0.40;;;;;;;-144.31;100.00;58022.63;4845275;29;20053;-59
2023/09/04 05:38:00;;;;;;;0.30;0.30;;;;;;;-144.31;100.00;58022.63;4848344;29;20582;-59
2023/09/04 05:40:25;;;;;;;0.30;0.30;;;;;;;-144.31;100.00;58022.63;4848790;29;20586;-58
2023/09/04 05:42:51;;;;;;;0.30;0.30;;;;;;;-144.31;100.00;58022.63;4845082;29;20045;-57
2023/09/04 05:45:17;;;;;;;0.30;0.30;;;;;;;-144.31;100.00;58022.63;4850253;29;20037;-57
2023/09/04 05:47:43;;;;;;;0.30;0.30;;;;;;;-144.31;100.00;58022.63;4847596;29;20045;-58
2023/09/04 05:50:09;;;;;;;0.30;0.30;;;;;;;-144.31;100.00;58022.63;4845942;29;20082;-58
2023/09/04 05:52:36;;;;;;;0.30;0.30;;;;;;;-144.31;100.00;58022.63;4844301;29;20141;-57
2023/09/04 05:55:01;;;;;;;0.30;0.30;;;;;;;-144.31;100.00;58022.63;4850774;29;20045;-58
2023/09/04 05:57:27;;;;;;;0.30;0.30;;;;;;;-144.31;100.00;58022.63;4848540;29;20053;-58
2023/09/04 05:59:52;;;;;;;0.20;0.20;;;;;;;-144.31;100.00;58022.63;4847624;29;20053;-58
2023/09/04 06:02:18;;;;;;;0.30;0.30;;;;;;;-144.31;100.00;58022.63;4848341;29;20046;-58
2023/09/04 06:04:43;;;;;;;0.30;0.30;;;;;;;-144.31;100.00;58022.63;4848169;29;20045;-58
2023/09/04 06:07:10;;;;;;;0.30;0.30;;;;;;;-144.31;100.00;58022.63;4864108;29;20038;-58
2023/09/04 06:09:37;;;;;;;0.38;0.38;;;;;;;-144.31;100.00;58022.63;4847052;29;20488;-58
2023/09/04 06:12:04;;;;;;;0.20;0.20;;;;;;;-144.31;100.00;58022.63;4846215;29;20049;-58
2023/09/04 06:14:29;;;;;;;0.25;0.25;;;;;;;-144.31;100.00;58022.63;4843942;29;20038;-58
2023/09/04 06:16:55;;;;;;;0.30;0.30;;;;;;;-144.31;100.00;58022.63;4847191;29;20041;-60
2023/09/04 06:19:20;;;;;;;0.30;0.30;;;;;;;-144.31;100.00;58022.63;4848398;29;20042;-58
2023/09/04 06:21:45;;;;;;;0.30;0.30;;;;;;;-144.31;100.00;58022.63;4848953;29;20253;-58
2023/09/04 06:24:11;;;;;;;0.30;0.30;;;;;;;-144.31;100.00;58022.63;4858947;29;20416;-60
2023/09/04 06:26:36;;;;;;;0.30;0.30;;;;;;;-144.31;100.00;58022.63;4847449;29;20407;-61
2023/09/04 06:29:02;;;;;;;0.30;0.30;;;;;;;-144.31;100.00;58022.63;4847913;29;20116;-59
2023/09/04 06:31:27;;;;;;;0.30;0.30;;;;;;;-144.31;100.00;58022.63;4848199;29;20045;-62
2023/09/04 06:33:53;;;;;;;0.20;0.20;;;;;;;-144.31;100.00;58022.63;4848403;29;20101;-59
2023/09/04 06:36:19;;;;;;;0.20;0.20;;;;;;;-144.31;100.00;58022.63;4844099;29;20617;-58
2023/09/04 06:38:44;;;;;;;0.20;0.20;;;;;;;-144.31;100.00;58022.63;4846172;29;20052;-59
2023/09/04 06:41:09;;;;;;;0.20;0.20;;;;;;;-144.31;100.00;58022.63;4846941;29;20041;-60
2023/09/04 06:43:35;;;;;;;0.20;0.20;;;;;;;-144.31;100.00;58022.63;4846155;29;20050;-59
2023/09/04 06:46:02;;;;;;;0.20;0.20;;;;;;;-144.31;100.00;58022.63;4847924;29;20049;-59
2023/09/04 06:48:28;;;;;;;0.20;0.20;;;;;;;-144.31;100.00;58022.63;4848304;29;20049;-58
2023/09/04 06:50:53;;;;;;;0.20;0.20;;;;;;;-144.31;100.00;58022.63;4850071;29;20113;-60
2023/09/04 06:53:20;;;;;;;0.20;0.20;;;;;;;-144.31;100.00;58022.63;4844637;29;20053;-60
2023/09/04 06:55:49;;;;;;;0.20;0.20;;;;;;;-144.31;100.00;58022.63;4846431;29;20041;-59
2023/09/04 06:58:14;;;;;;;0.20;0.20;;;;;;;-144.31;100.00;58022.63;4847263;29;20072;-60
2023/09/04 07:00:40;;;;;;;0.20;0.20;;;;;;;-144.31;100.00;58022.63;4845201;29;20073;-60
2023/09/04 07:03:05;;;;;;;0.20;0.20;;;;;;;-144.31;100.00;58022.63;4846115;29;20140;-59
2023/09/04 07:05:31;;;;;;;0.20;0.20;;;;;;;-144.31;100.00;58022.63;4852132;29;20124;-58
2023/09/04 07:07:57;;;;;;;0.20;0.20;;;;;;;-144.31;100.00;58022.63;4843981;29;20049;-60
2023/09/04 07:10:22;;;;;;;0.20;0.20;;;;;;;-144.31;100.00;58022.63;4848079;29;20044;-57
2023/09/04 07:12:51;;;;;;;0.20;0.20;;;;;;;-144.31;100.00;58022.63;4851070;29;20053;-62
2023/09/04 07:15:16;;;;;;;0.20;0.20;;;;;;;-144.31;100.00;58022.63;4848577;29;20128;-60
2023/09/04 07:17:41;;;;;;;0.10;0.10;;;;;;;-144.31;100.00;58022.63;4845953;29;20100;-60
2023/09/04 07:20:11;;;;;;;0.20;0.20;;;;;;;-144.31;100.00;58022.63;4845789;29;20042;-59
2023/09/04 07:22:36;;;;;;;0.20;0.20;;;;;;;-144.31;100.00;58022.63;4857157;29;20053;-60
2023/09/04 07:25:04;;;;;;;0.20;0.20;;;;;;;-144.31;100.00;58022.63;4850323;29;20046;-60
2023/09/04 07:27:29;;;;;;;0.20;0.20;;;;;;;-144.31;100.00;58022.63;4848533;29;20376;-60
2023/09/04 07:29:55;;;;;;;0.10;0.10;;;;;;;-144.31;100.00;58022.63;4843131;29;20539;-59
2023/09/04 07:32:21;;;;;;;0.10;0.10;;;;;;;-144.31;100.00;58022.63;4847046;29;20045;-59
2023/09/04 07:34:47;;;;;;;0.20;0.20;;;;;;;-144.31;100.00;58022.63;4849411;29;20072;-58
2023/09/04 07:37:12;;;;;;;0.20;0.20;;;;;;;-144.31;100.00;58022.63;4855718;29;20073;-60
2023/09/04 07:39:39;;;;;;;0.20;0.20;;;;;;;-144.31;100.00;58022.63;4847203;29;20046;-59
2023/09/04 07:42:05;;;;;;;0.20;0.20;;;;;;;-144.31;100.00;58022.63;4847852;29;20074;-58
2023/09/04 07:44:31;;;;;;;0.20;0.20;;;;;;;-144.31;100.00;58022.63;4844781;29;20059;-59
2023/09/04 07:46:57;;;;;;;0.10;0.10;;;;;;;-144.31;100.00;58022.63;4842571;29;20105;-59
2023/09/04 07:49:23;;;;;;;0.10;0.10;;;;;;;-144.31;100.00;58022.63;4850066;29;20448;-61
2023/09/04 07:51:50;;;;;;;0.10;0.10;;;;;;;-144.31;100.00;58022.63;4846486;29;20049;-58
2023/09/04 07:54:16;;;;;;;0.20;0.20;;;;;;;-144.31;100.00;58022.63;4847689;29;20057;-58
2023/09/04 07:56:41;;;;;;;0.10;0.10;;;;;;;-144.31;100.00;58022.63;4847742;29;20403;-59
2023/09/04 07:59:07;;;;;;;0.10;0.10;;;;;;;-144.31;100.00;58022.63;4849215;29;20042;-60
2023/09/04 08:01:32;;;;;;;0.10;0.10;;;;;;;-144.31;100.00;58022.63;4846230;29;20045;-58
2023/09/04 08:04:00;;;;;;;0.10;0.10;;;;;;;-144.31;100.00;58022.63;4844366;29;20042;-58
2023/09/04 08:06:26;;;;;;;0.10;0.10;;;;;;;-144.31;100.00;58022.63;4842283;29;20152;-60
2023/09/04 08:08:52;;;;;;;0.10;0.10;;;;;;;-144.31;100.00;58022.63;4848701;29;20049;-59
2023/09/04 08:11:18;;;;;;;0.10;0.10;;;;;;;-144.31;100.00;58022.63;4853755;29;20125;-59
2023/09/04 08:13:43;;;;;;;0.10;0.10;;;;;;;-144.31;100.00;58022.63;4850588;29;20121;-58
2023/09/04 08:16:08;;;;;;;0.10;0.10;;;;;;;-144.31;100.00;58022.63;4855990;29;20037;-58
2023/09/04 08:18:34;;;;;;;0.10;0.10;;;;;;;-144.31;100.00;58022.63;4846758;29;20117;-58
2023/09/04 08:20:59;;;;;;;0.10;0.10;;;;;;;-144.31;100.00;58022.63;4845655;29;20053;-58
2023/09/04 08:23:25;;;;;;;0.10;0.10;;;;;;;-144.31;100.00;58022.63;4854481;29;20073;-58
2023/09/04 08:26:01;;;;;;;0.10;0.10;;;;;;;-144.31;100.00;58022.63;4849214;29;20069;-58
2023/09/04 08:28:26;;;;;;;0.10;0.10;;;;;;;-144.31;100.00;58022.63;4844527;29;20055;-59
2023/09/04 08:30:52;;;;;;;0.10;0.10;;;;;;;-144.31;100.00;58022.63;4846545;29;20048;-59
2023/09/04 08:33:17;;;;;;;0.10;0.10;;;;;;;-144.31;100.00;58022.63;4842402;29;20054;-59
2023/09/04 08:35:43;;;;;;;0.10;0.10;;;;;;;-144.31;100.00;58022.63;4852107;29;20049;-58
2023/09/04 08:38:08;;;;;;;0.10;0.10;;;;;;;-144.31;100.00;58022.63;4847123;29;20087;-59
2023/09/04 08:40:35;;;;;;;0.10;0.10;;;;;;;-144.31;100.00;58022.63;4850757;29;20037;-60
2023/09/04 08:43:01;;;;;;;0.10;0.10;;;;;;;-144.31;100.00;58022.63;4847246;29;20049;-59
2023/09/04 08:45:27;;;;;;;0.10;0.10;;;;;;;-144.31;100.00;58022.63;4850019;29;20504;-58
2023/09/04 08:47:54;;;;;;;0.10;0.10;;;;;;;-144.31;100.00;58022.63;4853559;29;20293;-59
2023/09/04 08:50:21;;;;;;;0.10;0.10;;;;;;;-144.31;100.00;58022.63;4850654;29;20879;-58
2023/09/04 08:52:46;;;;;;;;;;;;;;;-144.31;100.00;58022.63;4850082;29;20482;-58
2023/09/04 08:55:12;;;;;;;0.10;0.10;;;;;;;-144.31;100.00;58022.63;4851094;29;20007;-59
2023/09/04 08:57:39;;;;;;;0.10;0.10;;;;;;;-144.31;100.00;58022.63;4854353;29;20122;-58
2023/09/04 09:00:06;;;;;;;0.10;0.10;;;;;;;-144.31;100.00;58022.63;4852893;29;20136;-59
2023/09/04 09:02:31;;;;;;;0.10;0.10;;;;;;;-144.31;100.00;58022.63;4843933;29;20034;-58
2023/09/04 09:04:57;;;;;;;0.10;0.10;;;;;;;-144.31;100.00;58022.63;4845054;29;20093;-59
2023/09/04 09:07:26;;;;;;;0.03;0.03;;;;;;;-144.31;100.00;58022.63;4847926;29;20053;-61
2023/09/04 09:09:52;;;;;;;0.10;0.10;;;;;;;-144.31;100.00;58022.63;4845438;29;20113;-58
2023/09/04 09:12:18;;;;;;;0.10;0.10;;;;;;;-144.31;100.00;58022.63;4846853;29;20178;-59
2023/09/04 09:14:43;;;;;;;0.10;0.10;;;;;;;-144.31;100.00;58022.63;4848875;29;20160;-59
2023/09/04 09:17:13;;;;;;;0.10;0.10;;;;;;;-144.31;100.00;58022.63;4845891;29;20056;-59
2023/09/04 09:19:38;;;;;;;0.00;0.00;;;;;;;-144.31;100.00;58022.63;4847977;29;20474;-58
2023/09/04 09:22:18;;;;;;;0.10;0.10;;;;;;;-144.31;100.00;58022.63;4846593;29;20038;-56
2023/09/04 09:25:00;;;;;;;0.10;0.10;;;;;;;-144.31;100.00;58022.63;4849494;29;20045;-59
2023/09/04 09:27:31;;;;;;;0.10;0.10;;;;;;;-144.31;100.00;58022.63;4849243;29;20054;-59
2023/09/04 09:29:58;;;;;;;0.10;0.10;;;;;;;-144.31;100.00;58022.63;4859851;29;20512;-58
2023/09/04 09:32:32;;;;;;;0.10;0.10;;;;;;;-144.31;100.00;58022.63;4845936;29;20084;-60
2023/09/04 09:35:00;;;;;;;0.00;0.00;;;;;;;-144.31;100.00;58022.63;4849274;29;20768;-59
2023/09/04 09:37:30;;;;;;;0.05;0.05;;;;;;;-144.31;100.00;58022.63;4848943;29;20041;-61
2023/09/04 09:39:55;;;;;;;0.03;0.03;;;;;;;-144.31;100.00;58022.63;4846268;29;20170;-59
2023/09/04 09:42:21;;;;;;;0.10;0.10;;;;;;;-144.31;100.00;58022.63;4849415;29;20136;-58
2023/09/04 09:44:47;;;;;;;0.10;0.10;;;;;;;-144.31;100.00;58022.63;4850396;29;20045;-59
2023/09/04 09:47:13;;;;;;;0.10;0.10;;;;;;;-144.31;100.00;58022.63;4851502;29;20507;-59
2023/09/04 09:49:43;;;;;;;0.10;0.10;;;;;;;-144.31;100.00;58022.63;4845336;29;20128;-59
2023/09/04 09:52:10;;;;;;;0.10;0.10;;;;;;;-144.31;100.00;58022.63;4850874;29;20056;-60
2023/09/04 09:54:37;;;;;;;0.00;0.00;;;;;;;-144.31;100.00;58022.63;4845149;29;20044;-59
2023/09/04 09:57:04;;;;;;;;;;;;;;;-144.31;100.00;58022.63;4845924;29;20093;-59
2023/09/04 09:59:32;;;;;;;;;;;;;;;-144.31;100.00;58022.63;4843680;29;19931;-59
2023/09/04 10:01:58;;;;;;;0.08;0.08;;;;;;;-144.31;100.00;58022.63;4848646;29;19967;-58
2023/09/04 10:04:25;;;;;;;0.10;0.10;;;;;;;-144.31;100.00;58022.63;4850100;29;20117;-59
2023/09/04 10:06:52;;;;;;;0.00;0.00;;;;;;;-144.31;100.00;58022.63;4845215;29;20082;-59
2023/09/04 10:09:22;;;;;;;0.00;0.00;;;;;;;-144.31;100.00;58022.63;4846394;29;20090;-59
2023/09/04 10:11:57;;;;;;;0.00;0.00;;;;;;;-144.31;100.00;58022.63;4847886;29;20030;-59
2023/09/04 10:14:29;;;;;;;0.05;0.05;;;;;;;-144.31;100.00;58022.63;4846148;29;20041;-60
2023/09/04 10:17:00;;;;;;;0.10;0.10;;;;;;;-144.31;100.00;58022.63;4849091;29;20045;-59
2023/09/04 10:19:30;;;;;;;0.10;0.10;;;;;;;-144.31;100.00;58022.63;4847867;29;20073;-59
2023/09/04 10:22:03;;;;;;;0.00;0.00;;;;;;;-144.31;100.00;58022.63;4849194;29;20461;-59
2023/09/04 10:24:43;;;;;;;0.00;0.00;;;;;;;-144.31;100.00;58022.63;4844345;29;20053;-60
2023/09/04 10:27:09;;;;;;;0.00;0.00;;;;;;;-144.31;100.00;58022.63;4844912;29;20120;-60
2023/09/04 10:29:46;;;;;;;0.10;0.10;;;;;;;-144.31;100.00;58022.63;4835019;29;20185;-59
2023/09/04 10:32:12;;;;;;;0.00;0.00;;;;;;;-144.31;100.00;58022.63;4846133;29;20053;-59
2023/09/04 10:34:40;;;;;;;0.10;0.10;;;;;;;-144.31;100.00;58022.63;4851625;29;20106;-59
2023/09/04 10:37:09;;;;;;;0.00;0.00;;;;;;;-144.31;100.00;58022.63;4848066;29;20129;-59
2023/09/04 10:39:35;;;;;;;0.00;0.00;;;;;;;-144.31;100.00;58022.63;4845364;29;20052;-58
2023/09/04 10:42:01;;;;;;;0.00;0.00;;;;;;;-144.31;100.00;58022.63;4847867;29;20037;-59
2023/09/04 10:44:45;;;;;;;0.00;0.00;;;;;;;-144.31;100.00;58022.63;4850243;29;20292;-58
2023/09/04 10:47:12;;;;;;;0.00;0.00;;;;;;;-144.31;100.00;58022.63;4845103;29;20046;-59
2023/09/04 10:49:37;;;;;;;0.00;0.00;;;;;;;-144.31;100.00;58022.63;4846660;29;20053;-59
2023/09/04 10:52:11;;;;;;;0.00;0.00;;;;;;;-144.31;100.00;58022.63;4845404;29;20041;-59
2023/09/04 10:54:39;;;;;;;0.00;0.00;;;;;;;-144.31;100.00;58022.63;4850626;29;20073;-59
2023/09/04 10:57:16;;;;;;;0.00;0.00;;;;;;;-144.31;100.00;58022.63;4848763;29;20049;-59
2023/09/04 10:59:53;;;;;;;0.00;0.00;;;;;;;-144.31;100.00;58022.63;4849115;29;20052;-59
2023/09/04 11:02:33;;;;;;;0.00;0.00;;;;;;;-144.31;100.00;58022.63;4844850;29;20129;-59
2023/09/04 11:05:00;;;;;;;0.00;0.00;;;;;;;-144.31;100.00;58022.63;4848149;29;20046;-59
2023/09/04 11:07:28;;;;;;;0.00;0.00;;;;;;;-144.31;100.00;58022.63;4849287;29;20072;-59